KDEH/DEH METAR and TAF weather

Enter ICAO airport designator
Station Type Date Time Source
KDEH METAR 2019/10/21 22:15 UTC NOAA

KDEH 212215Z AUTO 20013G23KT 10SM OVC023 09/06 A2929 RMK AO2


Station Type Date Time Source
KDEH Decoded METAR 2019/10/21 22:15 UTC NOAA

Decorah, IA, United States (KDEH) 43-17N 091-44W
Oct 21, 2019 - 06:15 PM EDT / 2019.10.21 2215 UTC
Wind: from the SSW (200 degrees) at 15 MPH (13 KT) gusting to 26 MPH (23 KT):0
Visibility: 10 mile(s):0
Sky conditions: overcast
Temperature: 48 F (9 C)
Dew Point: 42 F (6 C)
Relative Humidity: 81%
Pressure (altimeter): 29.29 in. Hg (991 hPa)
ob: KDEH 212215Z AUTO 20013G23KT 10SM OVC023 09/06 A2929 RMK AO2
cycle: 22

Station Type Date Time Source
KDEH TAF UTC NOAA

Error!

Example: see airport list